RJSK METAR and TAF | Updated Today

RJSK METAR

Akita Airport

Observation time: 27 min. ago

RJSK 060900Z 13004KT 100V160 9999 FEW040 SCT060 BKN/// 04/03 Q1027

Need help? Read our tutorial on how to read METARs or read the parsed version below.

Akita Airport (RJSK) METAR

  • Weather conditions on Mon, 06 Dec 2021 09:00:00 +0000 (27 min. ago):
  • Present conditions: Dry
  • Clouds: A few at 1219 meters; scattered at 1829 meters; broken sky
  • Visibility: Greater than 10 km
  • Wind: 130 degrees at 4 knots
  • Temperature: 4 celsius
  • Dew point: 3 celsius
  • Pressure: 1027 millibars
  • Remarks: None


Useful to know...

RJSK TAF

Akita Airport

TAF RJSK 060505Z 0606/0712 14004KT 9999 FEW020 BKN040 TEMPO 0618/0700 1500 BR FEW001 BKN003 BECMG 0706/0709 34005KT
Observation time: 4:22 hr. ago
Need help? Read our tutorial on how to read TAFs or read the parsed version below.

Parsed version of TAF for Akita Airport (RJSK)

  • From 06 December at 06:00 UTC, to day 07 of the month at 12:00 UTC
  • Clouds: A few at 610 meters; broken sky at 1219 meters
  • Visibility: Greater than 10 km
  • Wind: 140 degrees at 4
  • Expected to arise temporarily, from 06 December at 18:00 UTC, to day 07 of the month at 00:00 UTC
  • Clouds: A few at 30 meters; broken sky at 91 meters
  • Visibility: 1500 meters
  • Other: Mist
  • Expected to arise soon, from 07 December at 06:00 UTC, to day 07 of the month at 09:00 UTC
  • Wind: 340 degrees at 5